sensor_id;sensor_type;location;lat;lon;timestamp;P1;durP1;ratioP1;P2;durP2;ratioP2
68923;SDS011;55961;52.156;20.942;2022-07-29T00:00:45;10.30;;;4.17;;
68923;SDS011;55961;52.156;20.942;2022-07-29T00:03:11;8.40;;;3.65;;
68923;SDS011;55961;52.156;20.942;2022-07-29T00:05:38;8.32;;;3.72;;
68923;SDS011;55961;52.156;20.942;2022-07-29T00:08:05;9.95;;;3.80;;
68923;SDS011;55961;52.156;20.942;2022-07-29T00:10:32;6.97;;;3.70;;
68923;SDS011;55961;52.156;20.942;2022-07-29T00:12:58;8.40;;;3.53;;
68923;SDS011;55961;52.156;20.942;2022-07-29T00:15:24;8.48;;;3.78;;
68923;SDS011;55961;52.156;20.942;2022-07-29T00:17:50;9.25;;;4.45;;
68923;SDS011;55961;52.156;20.942;2022-07-29T00:20:16;9.03;;;4.40;;
68923;SDS011;55961;52.156;20.942;2022-07-29T00:22:42;10.98;;;4.65;;
68923;SDS011;55961;52.156;20.942;2022-07-29T00:25:08;13.70;;;5.95;;
68923;SDS011;55961;52.156;20.942;2022-07-29T00:27:34;10.87;;;6.27;;
68923;SDS011;55961;52.156;20.942;2022-07-29T00:30:02;13.20;;;7.05;;
68923;SDS011;55961;52.156;20.942;2022-07-29T00:32:29;12.75;;;7.63;;
68923;SDS011;55961;52.156;20.942;2022-07-29T00:34:55;12.77;;;7.97;;
68923;SDS011;55961;52.156;20.942;2022-07-29T00:37:39;12.70;;;7.70;;
68923;SDS011;55961;52.156;20.942;2022-07-29T00:40:06;11.83;;;6.97;;
68923;SDS011;55961;52.156;20.942;2022-07-29T00:42:44;12.35;;;6.57;;
68923;SDS011;55961;52.156;20.942;2022-07-29T00:45:12;12.82;;;6.30;;
68923;SDS011;55961;52.156;20.942;2022-07-29T00:47:38;11.40;;;5.65;;
68923;SDS011;55961;52.156;20.942;2022-07-29T00:50:04;10.47;;;4.87;;
68923;SDS011;55961;52.156;20.942;2022-07-29T00:52:35;10.18;;;4.70;;
68923;SDS011;55961;52.156;20.942;2022-07-29T00:55:06;8.90;;;4.47;;
68923;SDS011;55961;52.156;20.942;2022-07-29T00:57:34;9.52;;;3.75;;
68923;SDS011;55961;52.156;20.942;2022-07-29T01:00:01;8.63;;;3.20;;
68923;SDS011;55961;52.156;20.942;2022-07-29T01:02:30;10.20;;;3.35;;
68923;SDS011;55961;52.156;20.942;2022-07-29T01:04:56;12.05;;;3.45;;
68923;SDS011;55961;52.156;20.942;2022-07-29T01:07:23;9.68;;;3.65;;
68923;SDS011;55961;52.156;20.942;2022-07-29T01:09:50;8.25;;;2.90;;
68923;SDS011;55961;52.156;20.942;2022-07-29T01:12:19;8.40;;;3.00;;
68923;SDS011;55961;52.156;20.942;2022-07-29T01:14:49;7.93;;;2.75;;
68923;SDS011;55961;52.156;20.942;2022-07-29T01:17:26;6.35;;;2.60;;
68923;SDS011;55961;52.156;20.942;2022-07-29T01:31:07;6.90;;;2.00;;
68923;SDS011;55961;52.156;20.942;2022-07-29T01:33:37;7.72;;;2.40;;
68923;SDS011;55961;52.156;20.942;2022-07-29T01:36:18;9.10;;;2.50;;
68923;SDS011;55961;52.156;20.942;2022-07-29T01:38:49;5.67;;;2.47;;
68923;SDS011;55961;52.156;20.942;2022-07-29T01:41:23;8.30;;;2.45;;
68923;SDS011;55961;52.156;20.942;2022-07-29T01:43:52;7.63;;;2.10;;
68923;SDS011;55961;52.156;20.942;2022-07-29T01:46:23;7.57;;;2.05;;
68923;SDS011;55961;52.156;20.942;2022-07-29T01:54:14;9.90;;;2.33;;
68923;SDS011;55961;52.156;20.942;2022-07-29T01:56:45;4.53;;;1.80;;
68923;SDS011;55961;52.156;20.942;2022-07-29T01:59:13;8.10;;;1.83;;
68923;SDS011;55961;52.156;20.942;2022-07-29T02:01:42;6.20;;;1.92;;
68923;SDS011;55961;52.156;20.942;2022-07-29T02:04:10;3.97;;;1.60;;
68923;SDS011;55961;52.156;20.942;2022-07-29T02:06:38;6.38;;;1.65;;
68923;SDS011;55961;52.156;20.942;2022-07-29T02:09:07;6.72;;;1.98;;
68923;SDS011;55961;52.156;20.942;2022-07-29T02:11:37;4.50;;;1.80;;
68923;SDS011;55961;52.156;20.942;2022-07-29T02:14:04;6.82;;;1.88;;
68923;SDS011;55961;52.156;20.942;2022-07-29T02:16:32;4.90;;;1.87;;
68923;SDS011;55961;52.156;20.942;2022-07-29T02:19:01;4.90;;;1.60;;
68923;SDS011;55961;52.156;20.942;2022-07-29T02:21:28;4.88;;;1.63;;
68923;SDS011;55961;52.156;20.942;2022-07-29T02:23:55;5.65;;;1.90;;
68923;SDS011;55961;52.156;20.942;2022-07-29T02:26:26;5.18;;;1.70;;
68923;SDS011;55961;52.156;20.942;2022-07-29T02:28:55;5.47;;;1.90;;
68923;SDS011;55961;52.156;20.942;2022-07-29T02:31:23;6.22;;;1.67;;
68923;SDS011;55961;52.156;20.942;2022-07-29T02:33:51;4.72;;;1.83;;
68923;SDS011;55961;52.156;20.942;2022-07-29T02:36:20;5.20;;;1.95;;
68923;SDS011;55961;52.156;20.942;2022-07-29T02:38:47;4.57;;;1.88;;
68923;SDS011;55961;52.156;20.942;2022-07-29T02:41:28;4.97;;;1.50;;
68923;SDS011;55961;52.156;20.942;2022-07-29T02:44:02;6.60;;;1.98;;
68923;SDS011;55961;52.156;20.942;2022-07-29T02:46:36;5.05;;;1.90;;
68923;SDS011;55961;52.156;20.942;2022-07-29T02:49:09;3.75;;;1.60;;
68923;SDS011;55961;52.156;20.942;2022-07-29T02:51:44;4.78;;;1.65;;
68923;SDS011;55961;52.156;20.942;2022-07-29T02:54:18;6.47;;;2.07;;
68923;SDS011;55961;52.156;20.942;2022-07-29T02:56:51;5.80;;;1.85;;
68923;SDS011;55961;52.156;20.942;2022-07-29T02:59:22;7.75;;;2.20;;
68923;SDS011;55961;52.156;20.942;2022-07-29T03:01:51;6.43;;;2.13;;
68923;SDS011;55961;52.156;20.942;2022-07-29T03:04:20;7.35;;;2.35;;
68923;SDS011;55961;52.156;20.942;2022-07-29T03:06:48;7.50;;;2.00;;
68923;SDS011;55961;52.156;20.942;2022-07-29T03:09:16;7.28;;;1.98;;
68923;SDS011;55961;52.156;20.942;2022-07-29T03:11:42;5.15;;;1.80;;
68923;SDS011;55961;52.156;20.942;2022-07-29T03:14:10;6.68;;;1.90;;
68923;SDS011;55961;52.156;20.942;2022-07-29T03:16:36;4.35;;;1.90;;
68923;SDS011;55961;52.156;20.942;2022-07-29T03:19:03;5.20;;;2.03;;
68923;SDS011;55961;52.156;20.942;2022-07-29T03:21:30;6.72;;;1.83;;
68923;SDS011;55961;52.156;20.942;2022-07-29T03:23:56;12.52;;;2.95;;
68923;SDS011;55961;52.156;20.942;2022-07-29T03:26:22;10.07;;;2.07;;
68923;SDS011;55961;52.156;20.942;2022-07-29T03:28:48;6.70;;;2.03;;
68923;SDS011;55961;52.156;20.942;2022-07-29T03:31:14;6.63;;;2.40;;
68923;SDS011;55961;52.156;20.942;2022-07-29T03:33:39;4.87;;;1.90;;
68923;SDS011;55961;52.156;20.942;2022-07-29T03:36:05;5.40;;;1.70;;
68923;SDS011;55961;52.156;20.942;2022-07-29T03:38:32;8.15;;;1.60;;
68923;SDS011;55961;52.156;20.942;2022-07-29T03:41:03;6.93;;;2.75;;
68923;SDS011;55961;52.156;20.942;2022-07-29T03:43:35;11.48;;;3.10;;
68923;SDS011;55961;52.156;20.942;2022-07-29T03:46:04;6.20;;;1.80;;
68923;SDS011;55961;52.156;20.942;2022-07-29T03:48:36;5.68;;;1.52;;
68923;SDS011;55961;52.156;20.942;2022-07-29T03:51:05;4.97;;;1.90;;
68923;SDS011;55961;52.156;20.942;2022-07-29T03:53:31;6.88;;;1.40;;
68923;SDS011;55961;52.156;20.942;2022-07-29T03:55:58;5.50;;;2.00;;
68923;SDS011;55961;52.156;20.942;2022-07-29T03:58:27;5.80;;;2.00;;
68923;SDS011;55961;52.156;20.942;2022-07-29T04:00:54;5.32;;;1.60;;
68923;SDS011;55961;52.156;20.942;2022-07-29T04:03:21;5.40;;;1.50;;
68923;SDS011;55961;52.156;20.942;2022-07-29T04:05:57;4.53;;;1.67;;
68923;SDS011;55961;52.156;20.942;2022-07-29T04:08:28;11.70;;;1.92;;
68923;SDS011;55961;52.156;20.942;2022-07-29T04:10:54;6.53;;;1.80;;
68923;SDS011;55961;52.156;20.942;2022-07-29T04:13:20;6.18;;;1.58;;
68923;SDS011;55961;52.156;20.942;2022-07-29T04:15:46;4.35;;;1.52;;
68923;SDS011;55961;52.156;20.942;2022-07-29T04:18:12;6.93;;;1.80;;
68923;SDS011;55961;52.156;20.942;2022-07-29T04:20:38;4.57;;;1.77;;
68923;SDS011;55961;52.156;20.942;2022-07-29T04:23:03;3.15;;;1.20;;
68923;SDS011;55961;52.156;20.942;2022-07-29T04:25:29;6.47;;;1.45;;
68923;SDS011;55961;52.156;20.942;2022-07-29T04:27:55;5.37;;;1.60;;
68923;SDS011;55961;52.156;20.942;2022-07-29T04:30:27;6.10;;;1.80;;
68923;SDS011;55961;52.156;20.942;2022-07-29T04:32:53;7.05;;;1.48;;
68923;SDS011;55961;52.156;20.942;2022-07-29T04:35:19;5.05;;;1.25;;
68923;SDS011;55961;52.156;20.942;2022-07-29T04:37:45;5.17;;;1.30;;
68923;SDS011;55961;52.156;20.942;2022-07-29T04:40:11;5.68;;;1.50;;
68923;SDS011;55961;52.156;20.942;2022-07-29T04:42:37;7.07;;;1.42;;
68923;SDS011;55961;52.156;20.942;2022-07-29T04:45:04;4.00;;;1.20;;
68923;SDS011;55961;52.156;20.942;2022-07-29T04:47:30;3.42;;;1.45;;
68923;SDS011;55961;52.156;20.942;2022-07-29T04:49:56;3.33;;;1.50;;
68923;SDS011;55961;52.156;20.942;2022-07-29T04:52:22;4.88;;;1.40;;
68923;SDS011;55961;52.156;20.942;2022-07-29T04:54:48;5.10;;;1.13;;
68923;SDS011;55961;52.156;20.942;2022-07-29T04:57:14;5.63;;;1.50;;
68923;SDS011;55961;52.156;20.942;2022-07-29T04:59:40;5.13;;;1.33;;
68923;SDS011;55961;52.156;20.942;2022-07-29T05:02:06;4.05;;;1.30;;
68923;SDS011;55961;52.156;20.942;2022-07-29T05:04:31;5.33;;;1.20;;
68923;SDS011;55961;52.156;20.942;2022-07-29T05:06:57;6.97;;;1.60;;
68923;SDS011;55961;52.156;20.942;2022-07-29T05:09:23;4.43;;;1.50;;
68923;SDS011;55961;52.156;20.942;2022-07-29T05:11:49;4.35;;;1.65;;
68923;SDS011;55961;52.156;20.942;2022-07-29T05:14:15;5.47;;;1.73;;
68923;SDS011;55961;52.156;20.942;2022-07-29T05:16:40;4.27;;;1.30;;
68923;SDS011;55961;52.156;20.942;2022-07-29T05:19:07;5.20;;;1.50;;
68923;SDS011;55961;52.156;20.942;2022-07-29T05:21:33;4.47;;;1.42;;
68923;SDS011;55961;52.156;20.942;2022-07-29T05:23:59;4.75;;;1.30;;
68923;SDS011;55961;52.156;20.942;2022-07-29T05:26:24;3.43;;;1.27;;
68923;SDS011;55961;52.156;20.942;2022-07-29T05:28:50;3.90;;;1.10;;
68923;SDS011;55961;52.156;20.942;2022-07-29T05:31:16;5.77;;;1.47;;
68923;SDS011;55961;52.156;20.942;2022-07-29T05:33:42;3.90;;;1.10;;
68923;SDS011;55961;52.156;20.942;2022-07-29T05:36:08;3.65;;;0.90;;
68923;SDS011;55961;52.156;20.942;2022-07-29T05:38:34;4.25;;;0.98;;
68923;SDS011;55961;52.156;20.942;2022-07-29T05:41:00;2.80;;;1.10;;
68923;SDS011;55961;52.156;20.942;2022-07-29T05:43:27;2.85;;;0.90;;
68923;SDS011;55961;52.156;20.942;2022-07-29T05:45:53;3.83;;;1.10;;
68923;SDS011;55961;52.156;20.942;2022-07-29T05:48:19;4.88;;;1.20;;
68923;SDS011;55961;52.156;20.942;2022-07-29T05:50:45;3.95;;;1.00;;
68923;SDS011;55961;52.156;20.942;2022-07-29T05:53:11;4.20;;;0.90;;
68923;SDS011;55961;52.156;20.942;2022-07-29T05:55:36;4.82;;;1.17;;
68923;SDS011;55961;52.156;20.942;2022-07-29T05:58:02;2.67;;;1.00;;
68923;SDS011;55961;52.156;20.942;2022-07-29T06:00:28;7.45;;;0.90;;
68923;SDS011;55961;52.156;20.942;2022-07-29T06:02:55;3.85;;;0.95;;
68923;SDS011;55961;52.156;20.942;2022-07-29T06:05:22;4.88;;;0.90;;
68923;SDS011;55961;52.156;20.942;2022-07-29T06:07:48;2.40;;;0.70;;
68923;SDS011;55961;52.156;20.942;2022-07-29T06:10:14;4.63;;;0.93;;
68923;SDS011;55961;52.156;20.942;2022-07-29T06:12:40;3.97;;;1.13;;
68923;SDS011;55961;52.156;20.942;2022-07-29T06:15:06;3.38;;;0.90;;
68923;SDS011;55961;52.156;20.942;2022-07-29T06:17:32;4.03;;;0.70;;
68923;SDS011;55961;52.156;20.942;2022-07-29T06:19:58;3.47;;;0.77;;
68923;SDS011;55961;52.156;20.942;2022-07-29T06:22:24;2.35;;;0.68;;
68923;SDS011;55961;52.156;20.942;2022-07-29T06:24:49;2.53;;;0.80;;
68923;SDS011;55961;52.156;20.942;2022-07-29T06:27:15;2.50;;;0.85;;
68923;SDS011;55961;52.156;20.942;2022-07-29T06:29:41;3.67;;;0.80;;
68923;SDS011;55961;52.156;20.942;2022-07-29T06:32:07;5.40;;;0.70;;
68923;SDS011;55961;52.156;20.942;2022-07-29T06:34:34;3.73;;;0.97;;
68923;SDS011;55961;52.156;20.942;2022-07-29T06:37:05;3.50;;;0.93;;
68923;SDS011;55961;52.156;20.942;2022-07-29T06:39:33;4.43;;;1.35;;
68923;SDS011;55961;52.156;20.942;2022-07-29T06:42:06;3.72;;;0.80;;
68923;SDS011;55961;52.156;20.942;2022-07-29T06:44:33;4.53;;;0.90;;
68923;SDS011;55961;52.156;20.942;2022-07-29T06:46:59;3.40;;;1.00;;
68923;SDS011;55961;52.156;20.942;2022-07-29T06:49:25;3.63;;;0.68;;
68923;SDS011;55961;52.156;20.942;2022-07-29T06:51:53;4.47;;;0.95;;
68923;SDS011;55961;52.156;20.942;2022-07-29T06:54:19;4.15;;;0.98;;
68923;SDS011;55961;52.156;20.942;2022-07-29T06:56:47;3.60;;;0.80;;
68923;SDS011;55961;52.156;20.942;2022-07-29T06:59:13;3.60;;;0.93;;
68923;SDS011;55961;52.156;20.942;2022-07-29T07:01:40;4.38;;;0.85;;
68923;SDS011;55961;52.156;20.942;2022-07-29T07:04:07;4.03;;;1.08;;
68923;SDS011;55961;52.156;20.942;2022-07-29T07:06:34;4.50;;;0.93;;
68923;SDS011;55961;52.156;20.942;2022-07-29T07:09:01;2.50;;;1.00;;
68923;SDS011;55961;52.156;20.942;2022-07-29T07:11:27;5.03;;;1.15;;
68923;SDS011;55961;52.156;20.942;2022-07-29T07:13:53;2.40;;;0.80;;
68923;SDS011;55961;52.156;20.942;2022-07-29T07:16:19;4.53;;;0.90;;
68923;SDS011;55961;52.156;20.942;2022-07-29T07:18:45;2.80;;;0.90;;
68923;SDS011;55961;52.156;20.942;2022-07-29T07:21:11;3.05;;;0.95;;
68923;SDS011;55961;52.156;20.942;2022-07-29T07:23:37;2.92;;;1.30;;
68923;SDS011;55961;52.156;20.942;2022-07-29T07:26:03;4.60;;;0.80;;
68923;SDS011;55961;52.156;20.942;2022-07-29T07:28:30;5.82;;;1.02;;
68923;SDS011;55961;52.156;20.942;2022-07-29T07:30:56;4.10;;;0.93;;
68923;SDS011;55961;52.156;20.942;2022-07-29T07:33:22;2.72;;;1.17;;
68923;SDS011;55961;52.156;20.942;2022-07-29T07:35:48;4.67;;;1.37;;
68923;SDS011;55961;52.156;20.942;2022-07-29T07:38:14;3.60;;;1.15;;
68923;SDS011;55961;52.156;20.942;2022-07-29T07:40:40;4.82;;;1.38;;
68923;SDS011;55961;52.156;20.942;2022-07-29T07:43:06;2.93;;;0.90;;
68923;SDS011;55961;52.156;20.942;2022-07-29T07:45:32;3.22;;;0.90;;
68923;SDS011;55961;52.156;20.942;2022-07-29T07:47:58;2.38;;;0.90;;
68923;SDS011;55961;52.156;20.942;2022-07-29T07:50:24;3.03;;;1.00;;
68923;SDS011;55961;52.156;20.942;2022-07-29T07:52:50;5.40;;;0.95;;
68923;SDS011;55961;52.156;20.942;2022-07-29T07:55:20;3.60;;;1.02;;
68923;SDS011;55961;52.156;20.942;2022-07-29T07:57:46;5.75;;;1.40;;
68923;SDS011;55961;52.156;20.942;2022-07-29T08:00:13;2.75;;;0.90;;
68923;SDS011;55961;52.156;20.942;2022-07-29T08:02:40;8.67;;;1.10;;
68923;SDS011;55961;52.156;20.942;2022-07-29T08:05:08;4.10;;;1.23;;
68923;SDS011;55961;52.156;20.942;2022-07-29T08:07:34;4.60;;;1.10;;
68923;SDS011;55961;52.156;20.942;2022-07-29T08:10:00;9.23;;;2.28;;
68923;SDS011;55961;52.156;20.942;2022-07-29T08:12:26;4.20;;;1.10;;
68923;SDS011;55961;52.156;20.942;2022-07-29T08:14:52;4.97;;;0.90;;
68923;SDS011;55961;52.156;20.942;2022-07-29T08:17:19;5.78;;;1.23;;
68923;SDS011;55961;52.156;20.942;2022-07-29T08:19:45;3.03;;;1.00;;
68923;SDS011;55961;52.156;20.942;2022-07-29T08:22:12;3.08;;;1.30;;
68923;SDS011;55961;52.156;20.942;2022-07-29T08:24:39;2.92;;;1.30;;
68923;SDS011;55961;52.156;20.942;2022-07-29T08:27:21;4.70;;;1.40;;
68923;SDS011;55961;52.156;20.942;2022-07-29T08:29:47;4.75;;;1.10;;
68923;SDS011;55961;52.156;20.942;2022-07-29T08:32:13;3.67;;;1.07;;
68923;SDS011;55961;52.156;20.942;2022-07-29T08:34:39;3.17;;;1.00;;
68923;SDS011;55961;52.156;20.942;2022-07-29T08:37:05;5.70;;;1.00;;
68923;SDS011;55961;52.156;20.942;2022-07-29T08:39:31;4.85;;;0.93;;
68923;SDS011;55961;52.156;20.942;2022-07-29T08:41:57;4.37;;;1.30;;
68923;SDS011;55961;52.156;20.942;2022-07-29T08:44:23;4.38;;;1.27;;
68923;SDS011;55961;52.156;20.942;2022-07-29T08:46:50;4.60;;;1.35;;
68923;SDS011;55961;52.156;20.942;2022-07-29T08:49:16;6.23;;;1.57;;
68923;SDS011;55961;52.156;20.942;2022-07-29T08:51:43;5.63;;;1.40;;
68923;SDS011;55961;52.156;20.942;2022-07-29T08:54:09;4.20;;;1.30;;
68923;SDS011;55961;52.156;20.942;2022-07-29T08:56:35;4.95;;;2.67;;
68923;SDS011;55961;52.156;20.942;2022-07-29T08:59:04;6.88;;;2.60;;
68923;SDS011;55961;52.156;20.942;2022-07-29T09:01:31;16.97;;;9.37;;
68923;SDS011;55961;52.156;20.942;2022-07-29T09:03:59;4.75;;;2.25;;
68923;SDS011;55961;52.156;20.942;2022-07-29T09:06:28;4.22;;;1.40;;
68923;SDS011;55961;52.156;20.942;2022-07-29T09:08:58;3.53;;;1.13;;
68923;SDS011;55961;52.156;20.942;2022-07-29T09:11:25;5.68;;;1.70;;
68923;SDS011;55961;52.156;20.942;2022-07-29T09:13:51;3.60;;;1.10;;
68923;SDS011;55961;52.156;20.942;2022-07-29T09:16:17;5.50;;;1.17;;
68923;SDS011;55961;52.156;20.942;2022-07-29T09:18:44;5.22;;;1.05;;
68923;SDS011;55961;52.156;20.942;2022-07-29T09:21:12;3.97;;;1.00;;
68923;SDS011;55961;52.156;20.942;2022-07-29T09:24:08;4.40;;;1.00;;
68923;SDS011;55961;52.156;20.942;2022-07-29T09:26:44;4.40;;;1.30;;
68923;SDS011;55961;52.156;20.942;2022-07-29T09:29:11;4.43;;;1.27;;
68923;SDS011;55961;52.156;20.942;2022-07-29T09:31:41;4.32;;;1.50;;
68923;SDS011;55961;52.156;20.942;2022-07-29T09:34:08;6.97;;;2.30;;
68923;SDS011;55961;52.156;20.942;2022-07-29T09:36:38;6.07;;;3.00;;
68923;SDS011;55961;52.156;20.942;2022-07-29T09:39:12;3.85;;;1.80;;
68923;SDS011;55961;52.156;20.942;2022-07-29T09:44:15;4.15;;;1.05;;
68923;SDS011;55961;52.156;20.942;2022-07-29T09:46:58;5.73;;;1.23;;
68923;SDS011;55961;52.156;20.942;2022-07-29T09:49:34;4.72;;;1.27;;
68923;SDS011;55961;52.156;20.942;2022-07-29T09:52:14;5.38;;;1.33;;
68923;SDS011;55961;52.156;20.942;2022-07-29T09:54:40;3.10;;;1.13;;
68923;SDS011;55961;52.156;20.942;2022-07-29T09:57:07;3.93;;;1.27;;
68923;SDS011;55961;52.156;20.942;2022-07-29T09:59:38;3.70;;;0.90;;
68923;SDS011;55961;52.156;20.942;2022-07-29T10:02:13;2.75;;;0.98;;
68923;SDS011;55961;52.156;20.942;2022-07-29T10:04:39;4.45;;;0.85;;
68923;SDS011;55961;52.156;20.942;2022-07-29T10:07:06;4.30;;;1.23;;
68923;SDS011;55961;52.156;20.942;2022-07-29T10:09:33;3.97;;;0.90;;
68923;SDS011;55961;52.156;20.942;2022-07-29T10:12:17;3.55;;;1.25;;
68923;SDS011;55961;52.156;20.942;2022-07-29T10:14:44;3.83;;;1.40;;
68923;SDS011;55961;52.156;20.942;2022-07-29T10:17:10;7.10;;;1.20;;
68923;SDS011;55961;52.156;20.942;2022-07-29T10:19:36;3.75;;;1.38;;
68923;SDS011;55961;52.156;20.942;2022-07-29T10:22:04;3.80;;;0.90;;
68923;SDS011;55961;52.156;20.942;2022-07-29T10:24:35;6.93;;;1.45;;
68923;SDS011;55961;52.156;20.942;2022-07-29T10:27:03;3.72;;;1.48;;
68923;SDS011;55961;52.156;20.942;2022-07-29T10:29:30;3.40;;;1.23;;
68923;SDS011;55961;52.156;20.942;2022-07-29T10:40:45;4.72;;;1.40;;
68923;SDS011;55961;52.156;20.942;2022-07-29T10:43:41;3.60;;;1.10;;
68923;SDS011;55961;52.156;20.942;2022-07-29T10:46:10;3.80;;;1.10;;
68923;SDS011;55961;52.156;20.942;2022-07-29T10:49:03;3.60;;;1.27;;
68923;SDS011;55961;52.156;20.942;2022-07-29T10:51:54;3.25;;;1.27;;
68923;SDS011;55961;52.156;20.942;2022-07-29T11:05:04;4.35;;;1.05;;
68923;SDS011;55961;52.156;20.942;2022-07-29T11:07:31;3.42;;;1.10;;
68923;SDS011;55961;52.156;20.942;2022-07-29T11:15:08;3.43;;;1.10;;
68923;SDS011;55961;52.156;20.942;2022-07-29T11:20:41;4.28;;;1.23;;
68923;SDS011;55961;52.156;20.942;2022-07-29T11:25:44;4.10;;;1.02;;
68923;SDS011;55961;52.156;20.942;2022-07-29T11:28:29;2.83;;;1.07;;
68923;SDS011;55961;52.156;20.942;2022-07-29T11:30:55;4.65;;;1.35;;
68923;SDS011;55961;52.156;20.942;2022-07-29T11:33:39;4.88;;;0.60;;
68923;SDS011;55961;52.156;20.942;2022-07-29T11:36:13;3.40;;;0.73;;
68923;SDS011;55961;52.156;20.942;2022-07-29T11:38:40;2.77;;;0.60;;
68923;SDS011;55961;52.156;20.942;2022-07-29T11:41:22;3.88;;;1.40;;
68923;SDS011;55961;52.156;20.942;2022-07-29T11:43:53;2.58;;;1.00;;
68923;SDS011;55961;52.156;20.942;2022-07-29T11:49:12;2.03;;;0.70;;
68923;SDS011;55961;52.156;20.942;2022-07-29T11:51:43;4.20;;;1.10;;
68923;SDS011;55961;52.156;20.942;2022-07-29T11:54:32;6.47;;;1.10;;
68923;SDS011;55961;52.156;20.942;2022-07-29T11:56:59;3.20;;;1.10;;
68923;SDS011;55961;52.156;20.942;2022-07-29T11:59:25;4.93;;;1.00;;
68923;SDS011;55961;52.156;20.942;2022-07-29T12:01:52;4.35;;;1.02;;
68923;SDS011;55961;52.156;20.942;2022-07-29T12:04:22;2.40;;;0.80;;
68923;SDS011;55961;52.156;20.942;2022-07-29T12:06:52;4.15;;;0.90;;
68923;SDS011;55961;52.156;20.942;2022-07-29T12:09:19;5.20;;;1.42;;
68923;SDS011;55961;52.156;20.942;2022-07-29T12:11:46;2.75;;;1.00;;
68923;SDS011;55961;52.156;20.942;2022-07-29T12:14:28;4.72;;;1.20;;
68923;SDS011;55961;52.156;20.942;2022-07-29T12:16:55;3.00;;;1.30;;
68923;SDS011;55961;52.156;20.942;2022-07-29T12:19:21;3.67;;;1.20;;
68923;SDS011;55961;52.156;20.942;2022-07-29T12:21:48;2.63;;;1.20;;
68923;SDS011;55961;52.156;20.942;2022-07-29T12:24:19;2.65;;;0.80;;
68923;SDS011;55961;52.156;20.942;2022-07-29T12:26:53;3.47;;;0.80;;
68923;SDS011;55961;52.156;20.942;2022-07-29T12:29:23;4.17;;;0.60;;
68923;SDS011;55961;52.156;20.942;2022-07-29T12:31:53;2.63;;;0.57;;
68923;SDS011;55961;52.156;20.942;2022-07-29T12:34:20;2.35;;;0.70;;
68923;SDS011;55961;52.156;20.942;2022-07-29T12:36:48;3.65;;;1.10;;
68923;SDS011;55961;52.156;20.942;2022-07-29T12:39:15;5.35;;;0.85;;
68923;SDS011;55961;52.156;20.942;2022-07-29T12:41:42;5.20;;;0.70;;
68923;SDS011;55961;52.156;20.942;2022-07-29T12:44:09;2.45;;;1.02;;
68923;SDS011;55961;52.156;20.942;2022-07-29T12:46:35;4.72;;;1.02;;
68923;SDS011;55961;52.156;20.942;2022-07-29T12:49:02;3.85;;;0.80;;
68923;SDS011;55961;52.156;20.942;2022-07-29T12:51:33;6.03;;;1.00;;
68923;SDS011;55961;52.156;20.942;2022-07-29T12:54:19;4.97;;;0.90;;
68923;SDS011;55961;52.156;20.942;2022-07-29T12:56:45;3.53;;;1.25;;
68923;SDS011;55961;52.156;20.942;2022-07-29T12:59:21;4.05;;;1.13;;
68923;SDS011;55961;52.156;20.942;2022-07-29T13:01:49;6.90;;;1.02;;
68923;SDS011;55961;52.156;20.942;2022-07-29T13:04:26;4.95;;;1.27;;
68923;SDS011;55961;52.156;20.942;2022-07-29T13:07:03;1.90;;;1.10;;
68923;SDS011;55961;52.156;20.942;2022-07-29T13:12:08;5.30;;;0.80;;
68923;SDS011;55961;52.156;20.942;2022-07-29T13:14:36;6.10;;;1.27;;
68923;SDS011;55961;52.156;20.942;2022-07-29T13:17:05;3.03;;;0.93;;
68923;SDS011;55961;52.156;20.942;2022-07-29T13:19:36;2.83;;;0.90;;
68923;SDS011;55961;52.156;20.942;2022-07-29T13:22:03;3.95;;;1.40;;
68923;SDS011;55961;52.156;20.942;2022-07-29T13:24:29;3.25;;;0.93;;
68923;SDS011;55961;52.156;20.942;2022-07-29T13:26:55;2.95;;;0.70;;
68923;SDS011;55961;52.156;20.942;2022-07-29T13:29:21;2.93;;;1.20;;
68923;SDS011;55961;52.156;20.942;2022-07-29T13:31:47;3.30;;;1.10;;
68923;SDS011;55961;52.156;20.942;2022-07-29T13:34:13;2.35;;;0.68;;
68923;SDS011;55961;52.156;20.942;2022-07-29T13:36:38;4.47;;;1.93;;
68923;SDS011;55961;52.156;20.942;2022-07-29T13:39:04;4.22;;;1.90;;
68923;SDS011;55961;52.156;20.942;2022-07-29T13:41:30;5.72;;;1.60;;
68923;SDS011;55961;52.156;20.942;2022-07-29T13:43:56;2.57;;;1.00;;
68923;SDS011;55961;52.156;20.942;2022-07-29T13:46:21;2.97;;;0.90;;
68923;SDS011;55961;52.156;20.942;2022-07-29T13:48:47;2.80;;;0.87;;
68923;SDS011;55961;52.156;20.942;2022-07-29T13:51:13;2.92;;;0.73;;
68923;SDS011;55961;52.156;20.942;2022-07-29T13:53:39;2.45;;;1.10;;
68923;SDS011;55961;52.156;20.942;2022-07-29T13:56:05;4.00;;;0.97;;
68923;SDS011;55961;52.156;20.942;2022-07-29T13:58:31;4.10;;;1.00;;
68923;SDS011;55961;52.156;20.942;2022-07-29T14:00:58;3.30;;;1.05;;
68923;SDS011;55961;52.156;20.942;2022-07-29T14:03:24;3.57;;;0.97;;
68923;SDS011;55961;52.156;20.942;2022-07-29T14:05:50;3.03;;;0.80;;
68923;SDS011;55961;52.156;20.942;2022-07-29T14:08:16;3.58;;;1.00;;
68923;SDS011;55961;52.156;20.942;2022-07-29T14:10:43;2.85;;;0.80;;
68923;SDS011;55961;52.156;20.942;2022-07-29T14:13:08;3.97;;;1.00;;
68923;SDS011;55961;52.156;20.942;2022-07-29T14:15:34;3.75;;;0.90;;
68923;SDS011;55961;52.156;20.942;2022-07-29T14:18:00;2.83;;;0.85;;
68923;SDS011;55961;52.156;20.942;2022-07-29T14:20:26;2.95;;;0.98;;
68923;SDS011;55961;52.156;20.942;2022-07-29T14:22:54;3.50;;;1.03;;
68923;SDS011;55961;52.156;20.942;2022-07-29T14:25:21;5.18;;;1.08;;
68923;SDS011;55961;52.156;20.942;2022-07-29T14:27:48;5.28;;;1.48;;
68923;SDS011;55961;52.156;20.942;2022-07-29T14:30:14;4.43;;;1.40;;
68923;SDS011;55961;52.156;20.942;2022-07-29T14:32:40;2.97;;;0.70;;
68923;SDS011;55961;52.156;20.942;2022-07-29T14:35:06;5.18;;;1.00;;
68923;SDS011;55961;52.156;20.942;2022-07-29T14:37:33;2.63;;;0.85;;
68923;SDS011;55961;52.156;20.942;2022-07-29T14:40:01;2.95;;;0.80;;
68923;SDS011;55961;52.156;20.942;2022-07-29T14:42:29;3.25;;;0.85;;
68923;SDS011;55961;52.156;20.942;2022-07-29T14:44:58;4.73;;;0.90;;
68923;SDS011;55961;52.156;20.942;2022-07-29T14:47:24;3.72;;;0.82;;
68923;SDS011;55961;52.156;20.942;2022-07-29T14:49:49;2.60;;;0.90;;
68923;SDS011;55961;52.156;20.942;2022-07-29T14:52:15;3.23;;;1.00;;
68923;SDS011;55961;52.156;20.942;2022-07-29T14:54:41;3.30;;;1.05;;
68923;SDS011;55961;52.156;20.942;2022-07-29T14:57:07;4.53;;;0.80;;
68923;SDS011;55961;52.156;20.942;2022-07-29T14:59:33;2.87;;;0.60;;
68923;SDS011;55961;52.156;20.942;2022-07-29T15:01:59;4.15;;;0.98;;
68923;SDS011;55961;52.156;20.942;2022-07-29T15:04:25;6.28;;;0.95;;
68923;SDS011;55961;52.156;20.942;2022-07-29T15:06:51;3.80;;;0.70;;
68923;SDS011;55961;52.156;20.942;2022-07-29T15:09:17;6.03;;;1.13;;
68923;SDS011;55961;52.156;20.942;2022-07-29T15:11:43;4.07;;;1.00;;
68923;SDS011;55961;52.156;20.942;2022-07-29T15:14:09;3.50;;;1.20;;
68923;SDS011;55961;52.156;20.942;2022-07-29T15:16:35;8.55;;;1.70;;
68923;SDS011;55961;52.156;20.942;2022-07-29T15:19:02;3.43;;;1.20;;
68923;SDS011;55961;52.156;20.942;2022-07-29T15:21:28;3.30;;;1.13;;
68923;SDS011;55961;52.156;20.942;2022-07-29T15:23:54;3.42;;;0.80;;
68923;SDS011;55961;52.156;20.942;2022-07-29T15:26:20;2.93;;;0.90;;
68923;SDS011;55961;52.156;20.942;2022-07-29T15:28:46;3.00;;;1.20;;
68923;SDS011;55961;52.156;20.942;2022-07-29T15:31:12;4.40;;;0.85;;
68923;SDS011;55961;52.156;20.942;2022-07-29T15:33:38;3.35;;;0.90;;